createdAt,value
2022-09-28T00:01:22.174Z,99443.75
2022-09-28T00:03:50.841Z,99437.00
2022-09-28T00:06:20.197Z,99442.38
2022-09-28T00:08:47.180Z,99441.59
2022-09-28T00:11:15.535Z,99436.66
2022-09-28T00:13:43.130Z,99436.44
2022-09-28T00:16:14.274Z,99440.38
2022-09-28T00:18:41.714Z,99432.34
2022-09-28T00:21:17.129Z,99438.75
2022-09-28T00:24:03.165Z,99443.53
2022-09-28T00:26:32.430Z,99435.78
2022-09-28T00:29:01.689Z,99440.56
2022-09-28T00:31:31.860Z,99429.22
2022-09-28T00:34:00.469Z,99433.50
2022-09-28T00:36:29.699Z,99435.06
2022-09-28T00:38:56.873Z,99429.41
2022-09-28T00:41:24.730Z,99433.31
2022-09-28T00:43:51.999Z,99424.44
2022-09-28T00:46:32.430Z,99422.97
2022-09-28T00:49:14.899Z,99415.13
2022-09-28T00:51:44.585Z,99419.31
2022-09-28T00:54:12.810Z,99419.31
2022-09-28T00:56:42.823Z,99419.31
2022-09-28T00:59:09.756Z,99411.91
2022-09-28T01:01:36.917Z,99412.78
2022-09-28T01:04:04.956Z,99415.63
2022-09-28T01:06:34.726Z,99405.78
2022-09-28T01:09:07.798Z,99403.66
2022-09-28T01:11:38.676Z,99407.56
2022-09-28T01:14:10.090Z,99401.47
2022-09-28T01:16:49.139Z,99402.78
2022-09-28T01:19:16.075Z,99398.34
2022-09-28T01:21:45.489Z,99404.72
2022-09-28T01:25:00.857Z,99404.13
2022-09-28T01:27:50.862Z,99401.91
2022-09-28T01:30:21.160Z,99401.31
2022-09-28T01:33:08.598Z,99406.63
2022-09-28T01:35:57.513Z,99401.09
2022-09-28T01:38:33.375Z,99398.53
2022-09-28T01:41:00.988Z,99405.34
2022-09-28T01:43:29.346Z,99402.66
2022-09-28T01:46:02.145Z,99392.19
2022-09-28T01:48:39.507Z,99394.38
2022-09-28T01:51:14.739Z,99395.00
2022-09-28T01:53:48.558Z,99392.50
2022-09-28T01:56:22.829Z,99386.78
2022-09-28T01:58:55.210Z,99387.22
2022-09-28T02:01:29.599Z,99392.28
2022-09-28T02:04:04.143Z,99391.47
2022-09-28T02:06:38.955Z,99387.63
2022-09-28T02:09:16.058Z,99381.38
2022-09-28T02:11:49.574Z,99380.81
2022-09-28T02:14:18.462Z,99372.44
2022-09-28T02:16:47.886Z,99377.03
2022-09-28T02:19:28.249Z,99368.22
2022-09-28T02:22:13.531Z,99366.59
2022-09-28T02:24:54.190Z,99372.00
2022-09-28T02:27:28.659Z,99372.00
2022-09-28T02:29:55.361Z,99372.59
2022-09-28T02:32:23.294Z,99358.81
2022-09-28T02:34:49.859Z,99364.09
2022-09-28T02:37:16.615Z,99367.50
2022-09-28T02:39:43.172Z,99372.41
2022-09-28T02:42:28.284Z,99368.41
2022-09-28T02:45:26.601Z,99371.69
2022-09-28T02:48:19.104Z,99372.50
2022-09-28T02:51:10.669Z,99378.41
2022-09-28T02:54:04.820Z,99382.16
2022-09-28T02:56:38.934Z,99371.69
2022-09-28T02:59:25.625Z,99382.53
2022-09-28T03:01:58.107Z,99381.22
2022-09-28T03:04:49.446Z,99380.88
2022-09-28T03:07:28.981Z,99374.75
2022-09-28T03:10:20.793Z,99381.00
2022-09-28T03:12:49.545Z,99377.91
2022-09-28T03:15:26.388Z,99377.81
2022-09-28T03:17:53.574Z,99373.59
2022-09-28T03:20:20.950Z,99374.09
2022-09-28T03:23:05.907Z,99367.53
2022-09-28T03:25:34.240Z,99368.47
2022-09-28T03:28:00.974Z,99371.75
2022-09-28T03:30:27.854Z,99368.47
2022-09-28T03:33:00.873Z,99364.97
2022-09-28T03:35:27.367Z,99361.66
2022-09-28T03:37:57.663Z,99360.47
2022-09-28T03:40:24.443Z,99368.72
2022-09-28T03:42:51.059Z,99367.69
2022-09-28T03:45:17.571Z,99373.09
2022-09-28T03:47:47.290Z,99372.25
2022-09-28T03:50:15.340Z,99366.34
2022-09-28T03:52:42.542Z,99362.94
2022-09-28T03:55:09.968Z,99359.38
2022-09-28T03:57:36.899Z,99361.69
2022-09-28T04:00:05.572Z,99353.44
2022-09-28T04:02:32.202Z,99353.88
2022-09-28T04:04:58.747Z,99351.97
2022-09-28T04:07:29.033Z,99352.25
2022-09-28T04:09:57.713Z,99351.38
2022-09-28T04:12:24.317Z,99348.16
2022-09-28T04:14:51.048Z,99346.59
2022-09-28T04:17:17.638Z,99347.69
2022-09-28T04:19:44.220Z,99342.84
2022-09-28T04:22:10.834Z,99352.44
2022-09-28T04:24:37.434Z,99352.69
2022-09-28T04:27:22.269Z,99347.28
2022-09-28T04:29:49.606Z,99350.56
2022-09-28T04:32:16.356Z,99354.91
2022-09-28T04:34:44.329Z,99342.19
2022-09-28T04:37:11.242Z,99350.06
2022-09-28T04:39:38.062Z,99358.78
2022-09-28T04:42:04.708Z,99360.41
2022-09-28T04:44:31.320Z,99362.63
2022-09-28T04:47:02.890Z,99363.44
2022-09-28T04:49:32.221Z,99368.13
2022-09-28T04:51:58.846Z,99356.72
2022-09-28T04:54:25.436Z,99360.56
2022-09-28T04:56:53.338Z,99358.47
2022-09-28T04:59:20.044Z,99358.81
2022-09-28T05:01:47.580Z,99354.19
2022-09-28T05:04:14.169Z,99355.25
2022-09-28T05:06:40.900Z,99352.56
2022-09-28T05:09:07.641Z,99353.41
2022-09-28T05:11:34.168Z,99351.75
2022-09-28T05:14:01.116Z,99362.31
2022-09-28T05:16:28.629Z,99359.63
2022-09-28T05:18:58.261Z,99364.56
2022-09-28T05:21:26.468Z,99364.56
2022-09-28T05:23:56.175Z,99363.97
2022-09-28T05:26:23.385Z,99356.91
2022-09-28T05:28:50.898Z,99353.41
2022-09-28T05:31:17.649Z,99364.22
2022-09-28T05:33:44.372Z,99364.78
2022-09-28T05:36:11.197Z,99359.94
2022-09-28T05:38:37.883Z,99351.56
2022-09-28T05:41:06.689Z,99356.50
2022-09-28T05:43:33.768Z,99356.00
2022-09-28T05:46:00.555Z,99359.53
2022-09-28T05:48:27.795Z,99355.28
2022-09-28T05:50:54.393Z,99357.22
2022-09-28T05:53:21.068Z,99357.06
2022-09-28T05:55:47.863Z,99357.81
2022-09-28T05:58:14.597Z,99357.31
2022-09-28T06:00:41.252Z,99359.63
2022-09-28T06:03:11.878Z,99358.03
2022-09-28T06:05:39.996Z,99361.31
2022-09-28T06:08:08.575Z,99359.50
2022-09-28T06:10:35.639Z,99354.34
2022-09-28T06:13:02.915Z,99356.28
2022-09-28T06:15:32.478Z,99355.81
2022-09-28T06:18:05.012Z,99359.06
2022-09-28T06:20:35.785Z,99361.03
2022-09-28T06:23:02.723Z,99356.75
2022-09-28T06:25:29.714Z,99362.81
2022-09-28T06:28:00.264Z,99361.78
2022-09-28T06:30:28.568Z,99370.56
2022-09-28T06:32:57.318Z,99377.13
2022-09-28T06:35:25.630Z,99374.50
2022-09-28T06:37:53.268Z,99385.41
2022-09-28T06:40:21.437Z,99381.69
2022-09-28T06:43:01.737Z,99381.28
2022-09-28T06:45:30.018Z,99389.25
2022-09-28T06:48:01.151Z,99390.06
2022-09-28T06:50:32.336Z,99393.41
2022-09-28T06:53:00.299Z,99396.75
2022-09-28T06:55:27.991Z,99398.66
2022-09-28T06:58:05.099Z,99407.91
2022-09-28T07:00:34.915Z,99407.16
2022-09-28T07:03:18.474Z,99406.13
2022-09-28T07:05:48.673Z,99404.34
2022-09-28T07:08:16.414Z,99411.22
2022-09-28T07:10:50.793Z,99405.78
2022-09-28T07:13:45.622Z,99404.34
2022-09-28T07:16:04.438Z,99413.00
2022-09-28T07:18:31.046Z,99420.13
2022-09-28T07:20:58.186Z,99410.69
2022-09-28T07:23:27.754Z,99413.41
2022-09-28T07:25:54.764Z,99418.84
2022-09-28T07:28:22.543Z,99419.91
2022-09-28T07:30:49.208Z,99427.66
2022-09-28T07:33:17.243Z,99415.72
2022-09-28T07:35:54.042Z,99428.69
2022-09-28T07:38:20.813Z,99426.78
2022-09-28T07:41:20.139Z,99432.94
2022-09-28T07:43:46.707Z,99423.88
2022-09-28T07:46:13.336Z,99426.31
2022-09-28T07:48:41.603Z,99424.41
2022-09-28T07:51:09.509Z,99429.13
2022-09-28T07:53:38.483Z,99433.59
2022-09-28T07:56:08.714Z,99437.75
2022-09-28T07:58:37.302Z,99445.59
2022-09-28T08:01:10.560Z,99444.91
2022-09-28T08:03:38.715Z,99449.81
2022-09-28T08:06:09.879Z,99447.94
2022-09-28T08:08:37.291Z,99454.63
2022-09-28T08:11:06.409Z,99452.81
2022-09-28T08:13:32.951Z,99453.63
2022-09-28T08:16:03.204Z,99461.72
2022-09-28T08:18:31.133Z,99464.94
2022-09-28T08:21:16.448Z,99462.22
2022-09-28T08:23:43.097Z,99464.25
2022-09-28T08:26:13.403Z,99467.00
2022-09-28T08:28:43.269Z,99468.44
2022-09-28T08:31:10.089Z,99465.16
2022-09-28T08:33:37.058Z,99469.59
2022-09-28T08:36:04.484Z,99475.25
2022-09-28T08:38:31.354Z,99479.94
2022-09-28T08:41:19.476Z,99477.22
2022-09-28T08:43:51.405Z,99480.72
2022-09-28T08:46:26.479Z,99482.09
2022-09-28T08:49:26.480Z,99484.91
2022-09-28T08:51:59.653Z,99482.97
2022-09-28T08:54:26.372Z,99487.56
2022-09-28T08:56:57.053Z,99487.84
2022-09-28T08:59:29.362Z,99489.13
2022-09-28T09:02:00.843Z,99490.28
2022-09-28T09:04:27.875Z,99495.84
2022-09-28T09:07:14.294Z,99499.34
2022-09-28T09:10:20.821Z,99492.25
2022-09-28T09:13:19.625Z,99489.22
2022-09-28T09:16:06.574Z,99495.81
2022-09-28T09:18:55.552Z,99498.84
2022-09-28T09:21:44.315Z,99497.22
2022-09-28T09:24:21.534Z,99500.00
2022-09-28T09:26:54.053Z,99491.06
2022-09-28T09:29:26.710Z,99497.03
2022-09-28T09:31:59.725Z,99492.06
2022-09-28T09:34:46.766Z,99496.09
2022-09-28T09:37:22.530Z,99498.22
2022-09-28T09:40:26.425Z,99497.75
2022-09-28T09:43:05.842Z,99501.25
2022-09-28T09:45:53.985Z,99508.00
2022-09-28T09:48:29.930Z,99503.34
2022-09-28T09:51:03.169Z,99503.56
2022-09-28T09:53:46.664Z,99504.75
2022-09-28T09:56:34.665Z,99504.84
2022-09-28T09:59:15.734Z,99505.72
2022-09-28T10:01:42.442Z,99502.88
2022-09-28T10:04:20.079Z,99508.97
2022-09-28T10:06:49.852Z,99508.66
2022-09-28T10:09:39.222Z,99512.00
2022-09-28T10:12:11.116Z,99510.38
2022-09-28T10:14:37.900Z,99512.69
2022-09-28T10:17:05.216Z,99519.66
2022-09-28T10:19:34.331Z,99512.91
2022-09-28T10:22:05.942Z,99516.22
2022-09-28T10:24:38.924Z,99518.47
2022-09-28T10:27:08.577Z,99514.47
2022-09-28T10:29:43.770Z,99520.00
2022-09-28T10:32:22.279Z,99511.84
2022-09-28T10:34:50.970Z,99514.13
2022-09-28T10:37:19.014Z,99521.91
2022-09-28T10:40:00.317Z,99512.84
2022-09-28T10:42:33.201Z,99521.28
2022-09-28T10:45:07.465Z,99516.66
2022-09-28T10:47:35.590Z,99521.94
2022-09-28T10:50:03.162Z,99510.28
2022-09-28T10:52:38.865Z,99520.06
2022-09-28T10:55:32.588Z,99517.91
2022-09-28T10:58:25.163Z,99516.66
2022-09-28T11:00:52.924Z,99517.22
2022-09-28T11:03:24.660Z,99525.44
2022-09-28T11:06:07.589Z,99522.66
2022-09-28T11:08:44.626Z,99519.41
2022-09-28T11:11:14.631Z,99512.91
2022-09-28T11:13:47.889Z,99515.81
2022-09-28T11:16:29.894Z,99515.16
2022-09-28T11:18:59.361Z,99522.94
2022-09-28T11:21:29.381Z,99517.66
2022-09-28T11:24:19.321Z,99519.69
2022-09-28T11:26:49.584Z,99518.56
2022-09-28T11:29:39.211Z,99523.53
2022-09-28T11:32:06.692Z,99522.03
2022-09-28T11:34:59.150Z,99531.78
2022-09-28T11:37:50.972Z,99525.16
2022-09-28T11:40:48.033Z,99517.78
2022-09-28T11:43:40.678Z,99520.69
2022-09-28T11:46:20.988Z,99530.44
2022-09-28T11:49:03.931Z,99523.78
2022-09-28T11:51:35.640Z,99520.25
2022-09-28T11:54:14.574Z,99528.63
2022-09-28T11:56:46.066Z,99519.94
2022-09-28T11:59:29.016Z,99534.00
2022-09-28T12:02:03.581Z,99532.47
2022-09-28T12:04:41.924Z,99534.09
2022-09-28T12:07:43.749Z,99530.16
2022-09-28T12:10:24.601Z,99534.88
2022-09-28T12:13:01.221Z,99537.22
2022-09-28T12:16:06.861Z,99535.28
2022-09-28T12:18:44.702Z,99543.38
2022-09-28T12:21:44.962Z,99540.69
2022-09-28T12:24:29.359Z,99540.19
2022-09-28T12:27:18.579Z,99554.16
2022-09-28T12:29:55.121Z,99537.44
2022-09-28T12:32:35.714Z,99544.59
2022-09-28T12:35:02.814Z,99545.16
2022-09-28T12:38:08.716Z,99548.19
2022-09-28T12:40:37.404Z,99549.53
2022-09-28T12:43:28.964Z,99553.72
2022-09-28T12:46:27.846Z,99557.28
2022-09-28T12:52:33.046Z,99560.13
2022-09-28T12:55:24.464Z,99559.41
2022-09-28T12:58:02.807Z,99565.84
2022-09-28T13:00:46.710Z,99561.75
2022-09-28T13:03:35.160Z,99562.56
2022-09-28T13:06:23.636Z,99564.44
2022-09-28T13:09:08.810Z,99566.09
2022-09-28T13:11:54.547Z,99564.19
2022-09-28T13:14:46.260Z,99558.59
2022-09-28T13:17:43.489Z,99567.09
2022-09-28T13:20:27.674Z,99558.00
2022-09-28T13:23:15.872Z,99558.59
2022-09-28T13:25:53.194Z,99566.59
2022-09-28T13:28:26.293Z,99565.19
2022-09-28T13:30:56.720Z,99565.13
2022-09-28T13:33:33.972Z,99572.00
2022-09-28T13:36:00.859Z,99553.03
2022-09-28T13:38:27.365Z,99564.22
2022-09-28T13:41:06.273Z,99556.00
2022-09-28T13:44:06.745Z,99569.63
2022-09-28T13:46:58.877Z,99564.63
2022-09-28T13:49:31.228Z,99558.16
2022-09-28T13:52:05.944Z,99566.25
2022-09-28T13:54:47.610Z,99560.50
2022-09-28T13:57:25.448Z,99573.53
2022-09-28T14:00:03.682Z,99569.47
2022-09-28T14:02:41.613Z,99565.94
2022-09-28T14:05:23.239Z,99571.47
2022-09-28T14:08:08.476Z,99573.19
2022-09-28T14:10:53.038Z,99570.81
2022-09-28T14:13:41.278Z,99570.53
2022-09-28T14:16:26.853Z,99571.94
2022-09-28T14:19:10.323Z,99578.28
2022-09-28T14:22:11.386Z,99578.28
2022-09-28T14:24:37.994Z,99581.84
2022-09-28T14:27:36.320Z,99571.75
2022-09-28T14:30:11.868Z,99583.81
2022-09-28T14:32:45.305Z,99583.25
2022-09-28T14:35:26.216Z,99579.72
2022-09-28T14:38:18.004Z,99587.94
2022-09-28T14:41:15.420Z,99583.84
2022-09-28T14:43:45.128Z,99579.47
2022-09-28T14:46:11.879Z,99578.38
2022-09-28T14:48:56.295Z,99577.00
2022-09-28T14:51:26.329Z,99584.09
2022-09-28T14:53:55.012Z,99583.28
2022-09-28T14:56:22.063Z,99591.16
2022-09-28T14:58:56.205Z,99591.41
2022-09-28T15:01:24.993Z,99588.72
2022-09-28T15:03:56.191Z,99586.78
2022-09-28T15:06:24.270Z,99584.63
2022-09-28T15:08:50.950Z,99576.44
2022-09-28T15:11:23.687Z,99585.19
2022-09-28T15:14:00.204Z,99584.94
2022-09-28T15:16:30.729Z,99593.13
2022-09-28T15:19:19.517Z,99591.47
2022-09-28T15:21:47.793Z,99587.13
2022-09-28T15:24:25.792Z,99598.59
2022-09-28T15:26:53.396Z,99592.56
2022-09-28T15:29:22.933Z,99605.13
2022-09-28T15:31:54.186Z,99601.31
2022-09-28T15:34:57.021Z,99603.50
2022-09-28T15:37:40.300Z,99604.56
2022-09-28T15:40:15.196Z,99614.09
2022-09-28T15:42:41.915Z,99605.06
2022-09-28T15:45:14.307Z,99613.19
2022-09-28T15:47:44.968Z,99605.53
2022-09-28T15:50:24.669Z,99604.94
2022-09-28T15:52:59.251Z,99605.22
2022-09-28T15:55:30.775Z,99611.44
2022-09-28T15:58:12.545Z,99610.56
2022-09-28T16:00:40.336Z,99611.88
2022-09-28T16:03:06.917Z,99614.28
2022-09-28T16:05:46.894Z,99607.91
2022-09-28T16:08:24.839Z,99603.75
2022-09-28T16:11:03.250Z,99616.22
2022-09-28T16:13:29.861Z,99608.78
2022-09-28T16:16:00.292Z,99608.19
2022-09-28T16:18:29.652Z,99607.81
2022-09-28T16:21:19.116Z,99624.03
2022-09-28T16:23:51.800Z,99619.31
2022-09-28T16:26:31.235Z,99618.13
2022-09-28T16:28:58.881Z,99620.56
2022-09-28T16:31:33.953Z,99614.22
2022-09-28T16:34:09.546Z,99617.44
2022-09-28T16:36:46.265Z,99619.09
2022-09-28T16:39:13.930Z,99621.22
2022-09-28T16:41:44.251Z,99617.59
2022-09-28T16:44:16.937Z,99621.44
2022-09-28T16:46:44.933Z,99624.19
2022-09-28T16:49:21.235Z,99626.47
2022-09-28T16:51:48.394Z,99620.22
2022-09-28T16:54:40.652Z,99624.44
2022-09-28T16:57:09.849Z,99627.88
2022-09-28T16:59:38.495Z,99637.66
2022-09-28T17:02:35.423Z,99636.75
2022-09-28T17:05:06.358Z,99628.19
2022-09-28T17:07:33.440Z,99634.75
2022-09-28T17:10:00.037Z,99637.72
2022-09-28T17:12:29.060Z,99638.41
2022-09-28T17:14:55.543Z,99638.28
2022-09-28T17:17:22.784Z,99641.53
2022-09-28T17:19:49.441Z,99638.47
2022-09-28T17:22:16.894Z,99645.41
2022-09-28T17:24:45.626Z,99640.91
2022-09-28T17:27:18.835Z,99645.19
2022-09-28T17:29:45.472Z,99648.25
2022-09-28T17:32:19.032Z,99657.13
2022-09-28T17:34:55.796Z,99652.41
2022-09-28T17:37:36.303Z,99660.28
2022-09-28T17:40:10.860Z,99655.34
2022-09-28T17:42:37.613Z,99654.44
2022-09-28T17:45:04.584Z,99651.41
2022-09-28T17:47:34.317Z,99659.78
2022-09-28T17:50:03.533Z,99668.09
2022-09-28T17:52:30.136Z,99670.81
2022-09-28T17:54:56.700Z,99664.53
2022-09-28T17:57:23.342Z,99667.34
2022-09-28T17:59:51.204Z,99663.97
2022-09-28T18:02:17.865Z,99672.47
2022-09-28T18:04:52.601Z,99672.22
2022-09-28T18:07:19.440Z,99673.22
2022-09-28T18:09:46.026Z,99677.72
2022-09-28T18:12:12.883Z,99673.50
2022-09-28T18:14:40.141Z,99671.19
2022-09-28T18:17:06.917Z,99683.47
2022-09-28T18:19:33.715Z,99684.09
2022-09-28T18:22:01.640Z,99678.81
2022-09-28T18:24:28.438Z,99687.66
2022-09-28T18:26:55.313Z,99681.16
2022-09-28T18:29:22.242Z,99689.31
2022-09-28T18:31:49.005Z,99692.59
2022-09-28T18:34:15.938Z,99686.00
2022-09-28T18:36:42.848Z,99688.97
2022-09-28T18:39:09.527Z,99688.59
2022-09-28T18:41:36.350Z,99689.09
2022-09-28T18:44:02.973Z,99689.22
2022-09-28T18:46:36.317Z,99686.84
2022-09-28T18:49:04.621Z,99698.97
2022-09-28T18:51:31.376Z,99692.75
2022-09-28T18:53:57.931Z,99693.66
2022-09-28T18:56:24.775Z,99712.38
2022-09-28T18:58:52.817Z,99714.66
2022-09-28T19:01:36.307Z,99711.47
2022-09-28T19:04:05.980Z,99707.22
2022-09-28T19:06:34.717Z,99710.41
2022-09-28T19:09:01.598Z,99716.03
2022-09-28T19:11:28.794Z,99720.16
2022-09-28T19:13:55.958Z,99712.53
2022-09-28T19:16:28.861Z,99715.34
2022-09-28T19:18:57.153Z,99724.41
2022-09-28T19:21:23.728Z,99727.34
2022-09-28T19:23:50.748Z,99717.94
2022-09-28T19:26:21.128Z,99726.66
2022-09-28T19:28:48.564Z,99727.50
2022-09-28T19:31:16.047Z,99738.09
2022-09-28T19:33:46.718Z,99731.84
2022-09-28T19:36:18.828Z,99734.16
2022-09-28T19:38:46.578Z,99735.69
2022-09-28T19:41:35.877Z,99745.47
2022-09-28T19:44:08.640Z,99736.72
2022-09-28T19:46:37.866Z,99744.41
2022-09-28T19:49:10.335Z,99741.81
2022-09-28T19:51:46.919Z,99745.72
2022-09-28T19:54:32.062Z,99738.41
2022-09-28T19:57:07.822Z,99744.66
2022-09-28T19:59:36.855Z,99743.84
2022-09-28T20:02:05.743Z,99743.47
2022-09-28T20:04:32.758Z,99744.88
2022-09-28T20:06:59.572Z,99745.97
2022-09-28T20:09:26.339Z,99754.78
2022-09-28T20:11:53.294Z,99752.06
2022-09-28T20:14:22.385Z,99754.41
2022-09-28T20:16:51.744Z,99761.84
2022-09-28T20:19:21.469Z,99758.78
2022-09-28T20:21:48.402Z,99758.53
2022-09-28T20:24:17.104Z,99759.59
2022-09-28T20:26:44.883Z,99760.75
2022-09-28T20:29:12.069Z,99767.69
2022-09-28T20:31:39.135Z,99760.25
2022-09-28T20:34:06.566Z,99767.22
2022-09-28T20:36:34.039Z,99769.34
2022-09-28T20:39:04.932Z,99780.97
2022-09-28T20:41:36.614Z,99773.47
2022-09-28T20:44:06.305Z,99789.91
2022-09-28T20:46:34.957Z,99780.59
2022-09-28T20:49:02.087Z,99778.13
2022-09-28T20:51:28.742Z,99786.50
2022-09-28T20:53:57.014Z,99777.53
2022-09-28T20:56:31.664Z,99774.81
2022-09-28T20:58:58.431Z,99779.91
2022-09-28T21:01:26.946Z,99776.34
2022-09-28T21:04:04.594Z,99779.78
2022-09-28T21:06:34.111Z,99768.34
2022-09-28T21:09:00.995Z,99782.09
2022-09-28T21:11:29.680Z,99777.97
2022-09-28T21:14:01.849Z,99773.00
2022-09-28T21:16:32.384Z,99787.59
2022-09-28T21:18:59.688Z,99782.03
2022-09-28T21:21:27.247Z,99782.03
2022-09-28T21:23:54.962Z,99788.53
2022-09-28T21:26:27.537Z,99784.97
2022-09-28T21:28:55.790Z,99781.91
2022-09-28T21:31:28.537Z,99780.47
2022-09-28T21:33:56.293Z,99788.25
2022-09-28T21:36:23.059Z,99785.75
2022-09-28T21:38:49.679Z,99787.66
2022-09-28T21:41:16.535Z,99784.81
2022-09-28T21:43:43.302Z,99792.09
2022-09-28T21:46:10.087Z,99798.31
2022-09-28T21:48:36.834Z,99791.63
2022-09-28T21:51:06.060Z,99801.50
2022-09-28T21:53:34.977Z,99797.38
2022-09-28T21:56:03.007Z,99799.00
2022-09-28T21:58:31.550Z,99791.72
2022-09-28T22:01:05.663Z,99797.56
2022-09-28T22:03:33.354Z,99804.25
2022-09-28T22:05:59.964Z,99802.84
2022-09-28T22:08:27.097Z,99799.56
2022-09-28T22:11:03.417Z,99804.13
2022-09-28T22:13:31.787Z,99806.81
2022-09-28T22:15:58.923Z,99811.03
2022-09-28T22:18:27.636Z,99802.34
2022-09-28T22:21:15.715Z,99803.16
2022-09-28T22:23:42.862Z,99811.72
2022-09-28T22:26:19.121Z,99799.94
2022-09-28T22:28:52.151Z,99808.66
2022-09-28T22:31:21.893Z,99804.16
2022-09-28T22:33:48.827Z,99807.88
2022-09-28T22:36:17.024Z,99809.16
2022-09-28T22:38:44.701Z,99805.88
2022-09-28T22:41:11.727Z,99809.03
2022-09-28T22:43:38.364Z,99810.28
2022-09-28T22:46:10.592Z,99810.06
2022-09-28T22:48:37.813Z,99819.25
2022-09-28T22:51:06.477Z,99813.00
2022-09-28T22:53:34.336Z,99820.53
2022-09-28T22:56:05.828Z,99827.19
2022-09-28T22:58:34.179Z,99823.28
2022-09-28T23:01:08.054Z,99830.34
2022-09-28T23:03:35.045Z,99832.22
2022-09-28T23:06:01.845Z,99833.50
2022-09-28T23:08:28.535Z,99842.63
2022-09-28T23:10:55.171Z,99836.03
2022-09-28T23:13:21.710Z,99837.31
2022-09-28T23:15:58.482Z,99844.25
2022-09-28T23:18:27.404Z,99832.25
2022-09-28T23:20:55.913Z,99826.25
2022-09-28T23:23:23.057Z,99833.28
2022-09-28T23:25:50.391Z,99827.47
2022-09-28T23:28:17.627Z,99824.59
2022-09-28T23:30:44.167Z,99829.38
2022-09-28T23:33:18.936Z,99825.94
2022-09-28T23:35:46.010Z,99832.66
2022-09-28T23:38:14.810Z,99828.56
2022-09-28T23:40:41.655Z,99820.69
2022-09-28T23:43:08.766Z,99824.44
2022-09-28T23:45:35.416Z,99821.97
2022-09-28T23:48:02.337Z,99832.59
2022-09-28T23:50:29.064Z,99838.63
2022-09-28T23:52:55.740Z,99838.44
2022-09-28T23:55:22.996Z,99840.91
2022-09-28T23:57:49.573Z,99827.03
